Time;durP1;ratioP1;P1;durP2;ratioP2;P2;SDS_P1;SDS_P2;PMS_P1;PMS_P2;Temp;Humidity;BMP_temperature;BMP_pressure;BME280_temperature;BME280_humidity;BME280_pressure;Samples;Min_cycle;Max_cycle;Signal;HPM_P1;HPM_P2
2023/01/06 00:00:26;;;;;;;18.60;9.77;;;;;;;-141.97;57.32;47772.78;5072907;28;20180;-83
2023/01/06 00:02:52;;;;;;;17.70;8.90;;;;;;;-141.97;57.58;47734.34;5072946;28;20259;-83
2023/01/06 00:05:17;;;;;;;19.07;9.43;;;;;;;-141.97;57.69;47749.72;5071927;28;20259;-84
2023/01/06 00:07:43;;;;;;;22.47;9.47;;;;;;;-141.97;56.88;47765.09;5072852;28;20226;-84
2023/01/06 00:10:09;;;;;;;18.63;9.53;;;;;;;-141.97;57.17;47770.88;5071763;28;20631;-83
2023/01/06 00:12:35;;;;;;;21.20;9.83;;;;;;;-141.97;57.12;47765.09;5072715;28;20173;-83
2023/01/06 00:15:00;;;;;;;20.53;8.83;;;;;;;-141.97;57.23;47776.63;5073082;28;20245;-83
2023/01/06 00:17:26;;;;;;;19.53;9.83;;;;;;;-141.97;57.58;47749.72;5072178;28;20192;-84
2023/01/06 00:19:51;;;;;;;17.73;8.97;;;;;;;-141.97;57.03;47855.44;5073830;28;20180;-82
2023/01/06 00:22:17;;;;;;;20.37;10.80;;;;;;;-141.97;57.40;47669.00;5073929;28;20168;-84
2023/01/06 00:24:42;;;;;;;18.03;9.37;;;;;;;-141.97;57.46;47672.84;5074302;28;20165;-83
2023/01/06 00:27:08;;;;;;;17.87;9.00;;;;;;;-141.97;57.98;47745.88;5074762;28;20545;-83
2023/01/06 00:29:33;;;;;;;21.47;10.73;;;;;;;-141.97;58.54;47753.56;5073329;28;20196;-83
2023/01/06 00:32:00;;;;;;;19.70;10.03;;;;;;;-141.97;58.67;47730.50;5074277;28;20171;-84
2023/01/06 00:34:26;;;;;;;19.40;8.83;;;;;;;-141.97;59.35;47792.03;5074344;28;20633;-83
2023/01/06 00:36:51;;;;;;;16.90;8.93;;;;;;;-141.97;59.12;47763.19;5074209;28;20171;-82
2023/01/06 00:39:17;;;;;;;17.10;8.93;;;;;;;-141.97;58.52;47713.22;5074534;28;20251;-82
2023/01/06 00:44:26;;;;;;;18.97;10.33;;;;;;;-141.97;58.53;47878.53;5074771;28;20660;-82
2023/01/06 00:46:51;;;;;;;16.63;9.60;;;;;;;-141.97;58.18;47757.41;5074190;28;20173;-81
2023/01/06 00:49:17;;;;;;;17.97;9.43;;;;;;;-141.97;58.65;47765.09;5073564;28;20179;-81
2023/01/06 00:51:42;;;;;;;16.83;9.17;;;;;;;-141.97;58.83;47776.63;5074222;28;20165;-81
2023/01/06 00:54:10;;;;;;;18.50;8.70;;;;;;;-141.97;59.07;47738.19;5074067;28;20206;-83
2023/01/06 00:56:39;;;;;;;18.00;10.07;;;;;;;-141.97;59.91;47780.47;5076217;28;20594;-82
2023/01/06 00:59:05;;;;;;;20.10;9.93;;;;;;;-141.97;59.80;47763.19;5077073;28;20169;-83
2023/01/06 01:01:32;;;;;;;20.17;10.10;;;;;;;-141.97;60.15;47770.88;5077425;28;20188;-82
2023/01/06 01:03:58;;;;;;;18.93;9.63;;;;;;;-141.97;60.13;47786.25;5076707;28;20578;-83
2023/01/06 01:06:23;;;;;;;19.00;10.17;;;;;;;-141.97;60.18;47742.03;5079918;28;20247;-81
2023/01/06 01:08:57;;;;;;;17.60;8.43;;;;;;;-141.97;60.47;47761.25;5081350;28;20172;-82
2023/01/06 01:14:09;;;;;;;19.27;9.93;;;;;;;-141.97;60.54;47792.03;5074125;28;20171;-82
2023/01/06 01:16:35;;;;;;;15.37;8.77;;;;;;;-141.97;60.39;47884.28;5073131;28;20172;-83
2023/01/06 01:19:00;;;;;;;19.13;9.10;;;;;;;-141.97;60.18;47790.09;5073208;28;20249;-82
2023/01/06 01:21:25;;;;;;;14.57;7.90;;;;;;;-141.97;59.42;47795.88;5074531;28;20302;-82
2023/01/06 01:23:51;;;;;;;13.77;7.50;;;;;;;-141.97;59.20;47738.19;5076689;28;20172;-83
2023/01/06 01:26:16;;;;;;;13.20;7.53;;;;;;;-141.97;58.72;47749.72;5075059;28;20240;-82
2023/01/06 01:28:42;;;;;;;15.77;7.30;;;;;;;-141.97;57.98;47824.69;5079010;28;20194;-82
2023/01/06 01:31:08;;;;;;;13.17;6.67;;;;;;;-141.97;57.62;47765.09;5081816;28;20164;-82
2023/01/06 01:33:34;;;;;;;12.27;6.80;;;;;;;-141.97;57.49;47788.19;5078341;28;20214;-82
2023/01/06 01:36:08;;;;;;;16.07;7.63;;;;;;;-141.97;57.44;47726.66;5075379;28;20214;-82
2023/01/06 01:38:34;;;;;;;14.27;7.07;;;;;;;-141.97;57.46;47776.63;5072809;28;20223;-82
2023/01/06 01:41:00;;;;;;;17.17;8.10;;;;;;;-141.97;57.29;47772.78;5073673;28;20545;-81
2023/01/06 01:43:51;;;;;;;12.70;6.67;;;;;;;-141.97;57.40;47743.97;5073860;28;20175;-83
2023/01/06 01:46:26;;;;;;;11.57;6.53;;;;;;;-141.97;56.97;47703.59;5074144;28;20168;-82
2023/01/06 01:48:55;;;;;;;15.50;6.87;;;;;;;-141.97;56.83;47784.34;5073391;28;20168;-82
2023/01/06 01:51:27;;;;;;;12.53;6.70;;;;;;;-141.97;56.88;47799.72;5073303;28;20165;-82
2023/01/06 01:53:57;;;;;;;17.13;8.23;;;;;;;-141.97;57.00;47630.56;5075877;28;20165;-84
2023/01/06 01:56:27;;;;;;;14.17;7.23;;;;;;;-141.97;56.91;47776.63;5075942;28;20291;-83
2023/01/06 01:58:58;;;;;;;14.77;7.30;;;;;;;-141.97;57.24;47857.38;5073941;28;20568;-81
2023/01/06 02:01:24;;;;;;;13.43;7.00;;;;;;;-141.97;57.73;47690.16;5072924;28;20226;-81
2023/01/06 02:03:50;;;;;;;9.90;5.97;;;;;;;-141.97;57.85;47730.50;5073143;28;20172;-81
2023/01/06 02:06:20;;;;;;;10.17;5.70;;;;;;;-141.97;57.83;47738.19;5074868;28;20169;-81
2023/01/06 02:09:05;;;;;;;9.83;5.80;;;;;;;-141.97;58.42;47772.78;5073680;28;20172;-81
2023/01/06 02:11:33;;;;;;;16.93;6.67;;;;;;;-141.97;59.02;47755.50;5070754;28;20648;-82
2023/01/06 02:14:09;;;;;;;8.63;5.07;;;;;;;-141.97;59.20;47678.63;5072297;28;20173;-81
2023/01/06 02:17:04;;;;;;;13.00;6.73;;;;;;;-141.97;59.30;47784.34;5072190;28;20237;-82
2023/01/06 02:19:42;;;;;;;13.63;6.80;;;;;;;-141.97;59.46;47765.09;5072225;28;20176;-82
2023/01/06 02:22:34;;;;;;;12.50;6.33;;;;;;;-141.97;59.76;47742.03;5072216;28;20247;-82
2023/01/06 02:25:55;;;;;;;15.43;6.87;;;;;;;-141.97;59.82;47738.19;5072209;28;20172;-83
2023/01/06 02:28:59;;;;;;;11.97;6.03;;;;;;;-141.97;59.78;47790.09;5071953;28;20173;-81
2023/01/06 02:31:43;;;;;;;12.67;5.73;;;;;;;-141.97;59.45;47805.47;5071694;28;20175;-82
2023/01/06 02:34:47;;;;;;;14.80;6.23;;;;;;;-141.97;58.73;47770.88;5071896;28;20244;-81
2023/01/06 02:37:36;;;;;;;12.60;6.37;;;;;;;-141.97;58.12;47728.59;5049372;28;20736;-82
2023/01/06 02:40:24;;;;;;;12.70;6.13;;;;;;;-141.97;57.27;47740.13;5049036;28;20253;-80
2023/01/06 02:43:04;;;;;;;12.00;6.60;;;;;;;-141.97;56.85;47751.66;5049328;28;20179;-82
2023/01/06 02:45:43;;;;;;;11.00;6.53;;;;;;;-141.97;56.49;47718.97;5049494;28;20248;-82
2023/01/06 02:48:18;;;;;;;11.83;5.97;;;;;;;-141.97;56.47;47793.94;5049656;28;20172;-82
2023/01/06 02:50:44;;;;;;;10.57;5.93;;;;;;;-141.97;56.53;47768.94;5032380;28;20177;-82
2023/01/06 02:53:21;;;;;;;11.67;7.07;;;;;;;-141.97;56.42;47753.56;5050007;28;20292;-82
2023/01/06 02:55:53;;;;;;;12.20;5.80;;;;;;;-141.97;56.45;47738.19;5049368;28;20176;-83
2023/01/06 02:58:30;;;;;;;12.00;6.17;;;;;;;-141.97;56.59;47738.19;5049217;28;20272;-83
2023/01/06 03:01:01;;;;;;;13.87;6.20;;;;;;;-141.97;56.50;47776.63;5049286;28;20262;-82
2023/01/06 03:03:31;;;;;;;12.57;6.33;;;;;;;-141.97;56.20;47772.78;5050249;28;20243;-83
2023/01/06 03:06:06;;;;;;;10.93;5.47;;;;;;;-141.97;55.99;47742.03;5049691;28;20593;-82
2023/01/06 03:08:32;;;;;;;9.97;5.03;;;;;;;-141.97;55.78;47738.19;5049141;28;20189;-82
2023/01/06 03:11:00;;;;;;;10.77;5.90;;;;;;;-141.97;55.71;47730.50;5048985;28;20282;-82
2023/01/06 03:13:34;;;;;;;8.27;4.27;;;;;;;-141.97;55.53;47745.88;5067037;28;20219;-82
2023/01/06 03:15:59;;;;;;;8.83;4.17;;;;;;;-141.97;55.03;47805.47;5071217;28;20204;-81
2023/01/06 03:18:26;;;;;;;9.40;4.70;;;;;;;-141.97;54.84;47767.03;5069522;28;20235;-82
2023/01/06 03:20:56;;;;;;;9.47;5.20;;;;;;;-141.97;54.73;47720.91;5069220;28;20721;-81
2023/01/06 03:23:22;;;;;;;13.47;9.07;;;;;;;-141.97;54.37;47830.47;5071197;28;20647;-81
2023/01/06 03:25:47;;;;;;;10.23;5.50;;;;;;;-141.97;54.28;47770.88;5074693;28;20173;-82
2023/01/06 03:28:13;;;;;;;8.93;4.73;;;;;;;-141.97;54.38;47770.88;5074802;28;20226;-82
2023/01/06 03:31:07;;;;;;;9.43;4.40;;;;;;;-141.97;54.48;47851.59;5073732;28;20177;-81
2023/01/06 03:33:51;;;;;;;12.63;5.83;;;;;;;-141.97;54.92;47801.63;5032654;28;20190;-81
2023/01/06 03:36:45;;;;;;;8.20;4.60;;;;;;;-141.97;54.57;47730.50;5035983;28;20650;-81
2023/01/06 03:39:16;;;;;;;6.67;4.17;;;;;;;-141.97;54.82;47765.09;5000782;28;20273;-82
2023/01/06 03:44:44;;;;;;;7.53;4.43;;;;;;;-141.97;54.60;47784.34;4993710;28;20326;-81
2023/01/06 03:47:35;;;;;;;14.60;5.23;;;;;;;-141.97;54.80;47751.66;4993691;28;20175;-82
2023/01/06 03:50:11;;;;;;;10.07;5.63;;;;;;;-141.97;54.90;47718.97;4994085;28;20194;-82
2023/01/06 03:52:46;;;;;;;15.47;6.70;;;;;;;-141.97;54.87;47732.44;4993193;28;20714;-82
2023/01/06 03:55:19;;;;;;;15.70;7.33;;;;;;;-141.97;55.26;47759.34;4993400;28;20186;-83
2023/01/06 03:57:54;;;;;;;43.00;16.60;;;;;;;-141.97;55.46;47865.06;4992961;28;20685;-83
2023/01/06 04:00:24;;;;;;;17.37;7.40;;;;;;;-141.97;55.92;47697.84;4993075;28;20211;-84
2023/01/06 04:02:50;;;;;;;14.40;6.60;;;;;;;-141.97;56.13;47745.88;4976580;28;20289;-84
2023/01/06 04:05:18;;;;;;;10.17;5.47;;;;;;;-141.97;56.56;47722.81;4993031;28;20278;-85
2023/01/06 04:07:44;;;;;;;11.23;6.17;;;;;;;-141.97;56.63;47776.63;4993188;28;20186;-84
2023/01/06 04:10:12;;;;;;;19.00;10.73;;;;;;;-141.97;57.27;47768.94;5006215;28;20190;-82
2023/01/06 04:12:37;;;;;;;17.40;10.40;;;;;;;-141.97;58.07;47688.22;5032644;28;20249;-82
2023/01/06 04:15:24;;;;;;;18.07;10.60;;;;;;;-141.97;59.06;47778.56;5035396;28;20660;-82
2023/01/06 04:17:50;;;;;;;12.80;7.13;;;;;;;-141.97;59.59;47780.47;5073800;28;20595;-83
2023/01/06 04:20:23;;;;;;;15.43;8.57;;;;;;;-141.97;60.24;47761.25;5074197;28;20172;-83
2023/01/06 04:22:49;;;;;;;16.50;10.33;;;;;;;-141.97;60.57;47745.88;5073878;28;20652;-82
2023/01/06 04:25:14;;;;;;;19.57;11.80;;;;;;;-141.97;60.97;47749.72;5074115;28;20169;-83
2023/01/06 04:27:41;;;;;;;27.60;16.57;;;;;;;-141.97;61.30;47784.34;5089017;28;20168;-82
2023/01/06 04:30:07;;;;;;;32.93;19.37;;;;;;;-141.97;61.12;47722.81;5074632;28;20169;-81
2023/01/06 04:32:32;;;;;;;22.93;13.67;;;;;;;-141.97;61.13;47669.00;5075753;28;20271;-83
2023/01/06 04:34:58;;;;;;;19.43;9.83;;;;;;;-141.97;60.64;47759.34;5073646;28;20183;-83
2023/01/06 04:37:23;;;;;;;22.17;11.97;;;;;;;-141.97;60.75;47749.72;5072198;28;20220;-82
2023/01/06 04:39:48;;;;;;;16.20;8.53;;;;;;;-141.97;60.66;47792.03;5073411;28;20164;-82
2023/01/06 04:42:14;;;;;;;11.97;6.00;;;;;;;-141.97;60.16;47761.25;5072430;28;20182;-83
2023/01/06 04:44:41;;;;;;;10.27;5.00;;;;;;;-141.97;59.86;47865.06;5073349;28;20168;-83
2023/01/06 04:47:07;;;;;;;10.47;5.17;;;;;;;-141.97;59.69;47738.19;5073637;28;20168;-82
2023/01/06 04:49:32;;;;;;;19.17;4.83;;;;;;;-141.97;59.52;47759.34;5074048;28;20548;-84
2023/01/06 04:51:57;;;;;;;12.57;5.60;;;;;;;-141.97;59.35;47642.09;5089600;28;20180;-84
2023/01/06 04:54:23;;;;;;;13.90;6.83;;;;;;;-141.97;59.02;47745.88;5074955;28;20248;-82
2023/01/06 04:56:48;;;;;;;10.53;5.67;;;;;;;-141.97;58.91;47730.50;5073354;28;20187;-86
2023/01/06 04:59:14;;;;;;;16.10;6.83;;;;;;;-141.97;58.90;47640.16;5074903;28;20169;-85
2023/01/06 05:01:39;;;;;;;9.63;5.37;;;;;;;-141.97;58.93;47628.63;5073427;28;20180;-83
2023/01/06 05:04:07;;;;;;;11.03;5.60;;;;;;;-141.97;59.14;47678.63;5074283;28;20175;-83
2023/01/06 05:06:33;;;;;;;12.10;5.90;;;;;;;-141.97;59.21;47692.06;5072718;28;20215;-84
2023/01/06 05:08:59;;;;;;;9.40;4.90;;;;;;;-141.97;59.52;47686.31;5074108;28;20172;-86
2023/01/06 05:11:25;;;;;;;9.63;5.40;;;;;;;-141.97;59.63;47753.56;5073779;28;20179;-84
2023/01/06 05:13:52;;;;;;;10.37;5.13;;;;;;;-141.97;59.91;47845.84;5073665;28;20222;-85
2023/01/06 05:16:28;;;;;;;10.13;5.47;;;;;;;-141.97;59.92;47763.19;5073772;28;20203;-85
2023/01/06 05:18:54;;;;;;;9.80;4.10;;;;;;;-141.97;59.64;47742.03;5072253;28;20232;-85
2023/01/06 05:21:20;;;;;;;11.60;5.80;;;;;;;-141.97;59.78;47742.03;5074065;28;20157;-82
2023/01/06 05:23:46;;;;;;;12.53;6.83;;;;;;;-141.97;59.54;47699.75;5071975;28;20172;-84
2023/01/06 05:26:22;;;;;;;15.53;7.57;;;;;;;-141.97;59.97;47782.41;5072871;28;20234;-85
2023/01/06 05:28:48;;;;;;;20.97;10.73;;;;;;;-141.97;59.52;47757.41;5073431;28;20168;-84
2023/01/06 05:31:15;;;;;;;27.60;13.33;;;;;;;-141.97;59.61;47676.69;5072989;28;20223;-82
2023/01/06 05:33:41;;;;;;;18.07;8.73;;;;;;;-141.97;59.49;47651.69;5071308;28;20173;-84
2023/01/06 05:36:09;;;;;;;11.20;6.23;;;;;;;-141.97;59.11;47759.34;5073005;28;20553;-83
2023/01/06 05:38:35;;;;;;;16.97;7.53;;;;;;;-141.97;58.33;47830.47;5071468;28;20232;-83
2023/01/06 05:41:01;;;;;;;8.17;4.60;;;;;;;-141.97;59.00;47780.47;5073228;28;20176;-83
2023/01/06 05:43:27;;;;;;;7.23;4.00;;;;;;;-141.97;58.79;47749.72;5073257;28;20185;-82
2023/01/06 05:45:53;;;;;;;19.93;8.97;;;;;;;-141.97;59.19;47699.75;5074029;28;20175;-82
2023/01/06 05:48:22;;;;;;;17.70;8.70;;;;;;;-141.97;58.77;47743.97;5075148;28;20240;-82
2023/01/06 05:50:48;;;;;;;24.40;10.77;;;;;;;-141.97;58.92;47674.78;5074626;28;20168;-83
2023/01/06 05:53:13;;;;;;;31.33;14.30;;;;;;;-141.97;59.06;47638.25;5072581;28;20244;-83
2023/01/06 05:55:38;;;;;;;28.60;13.63;;;;;;;-141.97;59.28;47826.63;5073173;28;20350;-84
2023/01/06 05:58:04;;;;;;;17.30;8.93;;;;;;;-141.97;59.29;47692.06;5073068;28;20631;-83
2023/01/06 06:00:29;;;;;;;25.10;11.93;;;;;;;-141.97;59.26;47876.59;5072214;28;20168;-83
2023/01/06 06:02:55;;;;;;;17.93;8.90;;;;;;;-141.97;58.95;47742.03;5064390;28;20181;-84
2023/01/06 06:05:20;;;;;;;27.07;12.37;;;;;;;-141.97;58.73;47772.78;5057112;28;20235;-82
2023/01/06 06:07:54;;;;;;;22.87;10.17;;;;;;;-141.97;59.00;47828.53;5053207;28;20192;-83
2023/01/06 06:10:20;;;;;;;20.50;10.40;;;;;;;-141.97;58.70;47768.94;5066424;28;20185;-83
2023/01/06 06:12:45;;;;;;;20.57;9.67;;;;;;;-141.97;57.94;47780.47;5072203;28;20958;-84
2023/01/06 06:15:11;;;;;;;21.80;10.10;;;;;;;-141.97;57.47;47768.94;5072812;28;20185;-83
2023/01/06 06:17:36;;;;;;;17.97;7.37;;;;;;;-141.97;57.16;47778.56;5071832;28;20211;-83
2023/01/06 06:20:02;;;;;;;27.60;12.37;;;;;;;-141.97;57.21;47745.88;5070779;28;20258;-84
2023/01/06 06:22:27;;;;;;;21.70;9.13;;;;;;;-141.97;57.10;47767.03;5072858;28;20722;-84
2023/01/06 06:24:53;;;;;;;14.40;5.73;;;;;;;-141.97;56.46;47834.31;5071462;28;20195;-84
2023/01/06 06:27:18;;;;;;;16.10;6.97;;;;;;;-141.97;55.91;47753.56;5074255;28;20675;-84
2023/01/06 06:29:43;;;;;;;12.27;6.00;;;;;;;-141.97;55.67;47753.56;5076119;28;20758;-83
2023/01/06 06:32:09;;;;;;;19.47;8.23;;;;;;;-141.97;55.81;47795.88;5076720;28;20207;-84
2023/01/06 06:34:34;;;;;;;18.20;7.77;;;;;;;-141.97;55.33;47688.22;5074634;28;20188;-85
2023/01/06 06:36:59;;;;;;;12.90;6.07;;;;;;;-141.97;54.44;47847.75;5075039;28;20204;-84
2023/01/06 06:39:25;;;;;;;13.37;6.33;;;;;;;-141.97;53.79;47767.03;5071293;28;20684;-84
2023/01/06 06:41:50;;;;;;;28.73;13.27;;;;;;;-141.97;53.75;47765.09;5071160;28;20238;-83
2023/01/06 06:44:16;;;;;;;11.17;5.63;;;;;;;-141.97;53.87;47745.88;5073365;28;20726;-83
2023/01/06 06:46:41;;;;;;;10.73;4.80;;;;;;;-141.97;53.52;47780.47;5070296;28;20229;-84
2023/01/06 06:49:06;;;;;;;18.53;7.60;;;;;;;-141.97;53.63;47853.53;5072224;28;20245;-83
2023/01/06 06:51:32;;;;;;;8.60;4.70;;;;;;;-141.97;53.37;47740.13;5076513;28;20219;-83
2023/01/06 06:53:57;;;;;;;16.93;7.47;;;;;;;-141.97;53.11;47753.56;5107006;28;20195;-84
2023/01/06 06:56:23;;;;;;;9.93;5.43;;;;;;;-141.97;52.97;47734.34;5092518;28;20198;-84
2023/01/06 06:58:48;;;;;;;6.87;3.53;;;;;;;-141.97;52.80;47734.34;5079573;28;20291;-87
2023/01/06 07:01:16;;;;;;;6.23;3.23;;;;;;;-141.97;52.70;47740.13;5079274;28;20580;-85
2023/01/06 07:03:42;;;;;;;3.90;2.70;;;;;;;-141.97;52.34;47790.09;5076154;28;20551;-84
2023/01/06 07:06:12;;;;;;;6.73;3.63;;;;;;;-141.97;52.33;47818.94;5043989;28;20228;-83
2023/01/06 07:08:38;;;;;;;7.73;4.07;;;;;;;-141.97;51.16;47684.38;5052970;28;20177;-84
2023/01/06 07:11:03;;;;;;;9.13;4.90;;;;;;;-141.97;48.48;47742.03;5052910;28;20182;-84
2023/01/06 07:13:29;;;;;;;8.57;4.80;;;;;;;-141.97;47.18;47711.28;5054344;28;20562;-85
2023/01/06 07:15:55;;;;;;;11.37;6.73;;;;;;;-141.97;47.63;47720.91;5053025;28;20217;-83
2023/01/06 07:18:21;;;;;;;12.23;5.90;;;;;;;-141.97;47.08;47699.75;5052981;28;20224;-83
2023/01/06 07:20:48;;;;;;;7.40;3.80;;;;;;;-141.97;47.29;47717.06;5053583;28;20646;-83
2023/01/06 07:23:15;;;;;;;9.00;4.20;;;;;;;-141.97;47.34;47776.63;5053536;28;20181;-84
2023/01/06 07:25:40;;;;;;;10.13;5.23;;;;;;;-141.97;47.00;47711.28;5052771;28;20231;-82
2023/01/06 07:28:07;;;;;;;10.43;5.10;;;;;;;-141.97;47.17;47765.09;5054044;28;20185;-84
2023/01/06 07:30:33;;;;;;;9.23;5.03;;;;;;;-141.97;48.76;47753.56;5053054;28;20238;-83
2023/01/06 07:32:59;;;;;;;11.63;5.87;;;;;;;-141.97;50.20;47738.19;5053192;28;20177;-84
2023/01/06 07:35:24;;;;;;;6.13;4.10;;;;;;;-141.97;50.79;47792.03;5053105;28;20181;-83
2023/01/06 07:37:50;;;;;;;13.03;6.60;;;;;;;-141.97;51.08;47632.47;5052484;28;20225;-81
2023/01/06 07:40:16;;;;;;;13.00;6.90;;;;;;;-141.97;51.26;47749.72;5051847;28;20189;-83
2023/01/06 07:42:42;;;;;;;8.83;5.10;;;;;;;-141.97;50.96;47724.75;5052537;28;20207;-84
2023/01/06 07:45:08;;;;;;;9.00;4.20;;;;;;;-141.97;51.09;47734.34;5052159;28;20268;-83
2023/01/06 07:47:33;;;;;;;9.33;4.83;;;;;;;-141.97;51.12;47734.34;5052364;28;20211;-83
2023/01/06 07:49:59;;;;;;;15.87;7.83;;;;;;;-141.97;50.47;47682.47;5052628;28;20649;-83
2023/01/06 07:52:24;;;;;;;11.73;6.63;;;;;;;-141.97;50.71;47743.97;5053348;28;20201;-83
2023/01/06 07:54:50;;;;;;;10.13;5.20;;;;;;;-141.97;50.42;47838.16;5052281;28;20729;-83
2023/01/06 07:57:15;;;;;;;11.37;5.37;;;;;;;-141.97;50.35;47711.28;5051531;28;20208;-84
2023/01/06 07:59:40;;;;;;;9.13;5.33;;;;;;;-141.97;50.25;47768.94;5052694;28;20184;-83
2023/01/06 08:02:06;;;;;;;11.90;7.67;;;;;;;-141.97;50.34;47703.59;5052203;28;20185;-82
2023/01/06 08:04:33;;;;;;;18.23;7.87;;;;;;;-141.97;49.79;47686.31;5041188;28;20742;-83
2023/01/06 08:07:00;;;;;;;26.93;13.87;;;;;;;-141.97;48.87;47738.19;5052929;28;20173;-83
2023/01/06 08:09:25;;;;;;;28.80;15.70;;;;;;;-141.97;48.58;47718.97;5051799;28;20243;-83
2023/01/06 08:11:50;;;;;;;23.87;12.00;;;;;;;-141.97;48.46;47857.38;5052305;28;20609;-83
2023/01/06 08:14:16;;;;;;;36.20;24.03;;;;;;;-141.97;48.06;47745.88;5052477;28;20267;-83
2023/01/06 08:16:41;;;;;;;36.27;20.50;;;;;;;-141.97;47.05;47724.75;5047916;28;20690;-83
2023/01/06 08:19:07;;;;;;;31.80;15.67;;;;;;;-141.97;46.70;47703.59;5051065;28;20232;-83
2023/01/06 08:21:32;;;;;;;22.17;11.83;;;;;;;-141.97;46.45;47680.53;5049559;28;20251;-84
2023/01/06 08:23:57;;;;;;;31.00;16.50;;;;;;;-141.97;45.88;47790.09;5049367;28;20189;-82
2023/01/06 08:26:23;;;;;;;14.87;9.60;;;;;;;-141.97;45.12;47711.28;5050250;28;20573;-82
2023/01/06 08:28:48;;;;;;;9.57;5.17;;;;;;;-141.97;45.28;47705.53;5050682;28;20246;-83
2023/01/06 08:31:17;;;;;;;12.47;5.73;;;;;;;-141.97;44.72;47857.38;5049916;28;20183;-82
2023/01/06 08:33:42;;;;;;;14.10;7.60;;;;;;;-141.97;45.05;47722.81;5051147;28;20189;-83
2023/01/06 08:36:11;;;;;;;12.67;6.90;;;;;;;-141.97;44.98;47730.50;5050226;28;20219;-83
2023/01/06 08:38:37;;;;;;;14.40;7.00;;;;;;;-141.97;44.42;47865.06;5049240;28;20672;-83
2023/01/06 08:41:03;;;;;;;17.30;9.80;;;;;;;-141.97;44.30;47784.34;5048849;28;20189;-83
2023/01/06 08:43:28;;;;;;;17.23;9.90;;;;;;;-141.97;44.10;47720.91;5051063;28;20265;-83
2023/01/06 08:45:59;;;;;;;16.70;7.77;;;;;;;-141.97;43.99;47730.50;5049733;28;20232;-82
2023/01/06 08:48:25;;;;;;;19.27;9.57;;;;;;;-141.97;44.22;47722.81;5050697;28;20274;-83
2023/01/06 08:50:50;;;;;;;25.10;12.33;;;;;;;-141.97;44.39;47695.91;5050883;28;20574;-82
2023/01/06 08:53:16;;;;;;;13.83;8.40;;;;;;;-141.97;44.70;47747.81;5048275;28;20199;-83
2023/01/06 08:55:41;;;;;;;20.90;9.20;;;;;;;-141.97;44.28;47711.28;5050257;28;20177;-83
2023/01/06 08:58:08;;;;;;;15.97;8.37;;;;;;;-141.97;44.33;47724.75;5050574;28;20209;-83
2023/01/06 09:00:36;;;;;;;16.87;7.53;;;;;;;-141.97;44.43;47788.19;5049887;28;20185;-83
2023/01/06 09:03:03;;;;;;;10.50;5.40;;;;;;;-141.97;44.55;47859.28;5048239;28;20193;-84
2023/01/06 09:05:29;;;;;;;14.27;6.93;;;;;;;-141.97;44.21;47686.31;5038936;28;20355;-84
2023/01/06 09:07:54;;;;;;;18.33;9.43;;;;;;;-141.97;44.42;47717.06;5049885;28;20673;-83
2023/01/06 09:10:20;;;;;;;9.13;5.13;;;;;;;-141.97;43.91;47718.97;5049929;28;20186;-83
2023/01/06 09:12:46;;;;;;;8.80;4.67;;;;;;;-141.97;44.09;47742.03;5050082;28;20258;-83
2023/01/06 09:15:12;;;;;;;7.10;3.60;;;;;;;-141.97;43.83;47709.38;5049074;28;20220;-82
2023/01/06 09:17:37;;;;;;;9.90;4.87;;;;;;;-141.97;43.93;47730.50;5048433;28;20306;-83
2023/01/06 09:20:03;;;;;;;12.37;5.17;;;;;;;-141.97;44.01;47701.69;5048703;28;20177;-83
2023/01/06 09:22:29;;;;;;;7.33;3.60;;;;;;;-141.97;43.49;47722.81;5064054;28;20276;-83
2023/01/06 09:24:54;;;;;;;10.17;5.37;;;;;;;-141.97;43.26;47699.75;5048776;28;20195;-84
2023/01/06 09:27:20;;;;;;;16.90;7.70;;;;;;;-141.97;43.03;47715.13;5049288;28;20486;-85
2023/01/06 09:29:45;;;;;;;7.60;3.67;;;;;;;-141.97;42.60;47709.38;5049296;28;20247;-81
2023/01/06 09:32:11;;;;;;;8.47;3.53;;;;;;;-141.97;42.94;47665.16;5047040;28;20181;-82
2023/01/06 09:34:36;;;;;;;7.37;3.97;;;;;;;-141.97;42.52;47793.94;5047665;28;20193;-83
2023/01/06 09:37:01;;;;;;;10.17;4.27;;;;;;;-141.97;42.24;47740.13;5049411;28;20274;-83
2023/01/06 09:39:27;;;;;;;6.17;3.93;;;;;;;-141.97;41.92;47699.75;5048910;28;20268;-82
2023/01/06 09:42:01;;;;;;;8.70;4.43;;;;;;;-141.97;42.05;47701.69;5050182;28;20701;-83
2023/01/06 09:44:54;;;;;;;12.83;5.73;;;;;;;-141.97;41.36;47709.38;5049536;28;20771;-83
2023/01/06 09:47:25;;;;;;;12.93;5.47;;;;;;;-141.97;41.01;47722.81;5048400;28;20207;-83
2023/01/06 09:50:13;;;;;;;9.73;4.30;;;;;;;-141.97;40.26;47717.06;5052678;28;20279;-83
2023/01/06 09:52:47;;;;;;;15.40;6.03;;;;;;;-141.97;40.69;47715.13;5052695;28;20199;-82
2023/01/06 09:55:19;;;;;;;8.17;3.13;;;;;;;-141.97;41.04;47801.63;5053620;28;20584;-82
2023/01/06 09:57:54;;;;;;;7.00;3.43;;;;;;;-141.97;41.04;47707.44;5052542;28;20635;-84
2023/01/06 10:00:41;;;;;;;6.30;3.20;;;;;;;-141.97;40.98;47695.91;5048037;28;20181;-82
2023/01/06 10:03:26;;;;;;;10.70;4.40;;;;;;;-141.97;40.32;47694.00;5050425;28;20219;-82
2023/01/06 10:06:10;;;;;;;6.97;3.10;;;;;;;-141.97;40.29;47736.28;5040117;28;20740;-82
2023/01/06 10:09:14;;;;;;;7.20;3.17;;;;;;;-141.97;40.13;47707.44;5048404;28;21027;-82
2023/01/06 10:11:48;;;;;;;6.07;2.90;;;;;;;-141.97;39.99;47722.81;5029365;28;20216;-83
2023/01/06 10:14:38;;;;;;;12.07;7.67;;;;;;;-141.97;39.43;47690.16;5036675;28;20259;-83
2023/01/06 10:17:21;;;;;;;7.27;3.37;;;;;;;-141.97;39.30;47732.44;5014435;28;20264;-83
2023/01/06 10:20:05;;;;;;;7.07;4.10;;;;;;;-141.97;39.63;47740.13;5028045;28;20252;-83
2023/01/06 10:22:36;;;;;;;5.40;2.60;;;;;;;-141.97;39.57;47722.81;5026949;28;20803;-83
2023/01/06 10:25:10;;;;;;;6.17;3.23;;;;;;;-141.97;39.55;47686.31;5029161;28;20185;-83
2023/01/06 10:27:41;;;;;;;16.50;7.27;;;;;;;-141.97;39.18;47665.16;5013120;28;20233;-84
2023/01/06 10:30:42;;;;;;;7.80;4.33;;;;;;;-141.97;39.20;47659.38;5029135;28;20276;-83
2023/01/06 10:33:40;;;;;;;7.40;3.57;;;;;;;-141.97;38.52;47661.31;4950017;28;20204;-84
2023/01/06 10:36:12;;;;;;;10.07;3.80;;;;;;;-141.97;38.51;47672.84;4950379;29;20207;-84
2023/01/06 10:38:50;;;;;;;7.20;4.33;;;;;;;-141.97;38.98;47680.53;4949279;28;20236;-84
2023/01/06 10:41:49;;;;;;;6.47;4.33;;;;;;;-141.97;38.61;47699.75;4949905;29;20196;-84
2023/01/06 10:44:16;;;;;;;6.97;4.07;;;;;;;-141.97;38.44;47515.22;4949078;29;20263;-85
2023/01/06 10:46:44;;;;;;;6.53;3.63;;;;;;;-141.97;39.11;47690.16;4951449;29;20216;-83
2023/01/06 10:49:16;;;;;;;12.70;5.07;;;;;;;-141.97;38.19;47682.47;4956003;29;20227;-83
2023/01/06 10:51:47;;;;;;;10.77;5.07;;;;;;;-141.97;38.23;47690.16;4960389;29;20749;-82
2023/01/06 10:54:21;;;;;;;8.63;4.10;;;;;;;-141.97;38.26;47669.00;4965379;28;20924;-83
2023/01/06 10:56:57;;;;;;;7.47;3.80;;;;;;;-141.97;38.35;47699.75;4986454;28;20296;-83
2023/01/06 10:59:23;;;;;;;7.90;4.63;;;;;;;-141.97;38.38;47676.69;4970819;28;20261;-82
2023/01/06 11:01:54;;;;;;;6.43;3.67;;;;;;;-141.97;37.97;47657.47;4987524;28;20627;-83
2023/01/06 11:04:20;;;;;;;7.77;3.40;;;;;;;-141.97;38.03;47776.63;4985975;28;20183;-84
2023/01/06 11:06:51;;;;;;;7.27;4.17;;;;;;;-141.97;38.24;47672.84;4972989;28;20232;-84
2023/01/06 11:09:25;;;;;;;10.77;5.27;;;;;;;-141.97;38.30;47684.38;4993595;28;20201;-84
2023/01/06 11:11:54;;;;;;;12.87;3.17;;;;;;;-141.97;38.70;47695.91;5038892;28;20267;-84
2023/01/06 11:14:24;;;;;;;9.63;4.10;;;;;;;-141.97;39.01;47688.22;5041164;28;20185;-84
2023/01/06 11:17:00;;;;;;;11.47;5.03;;;;;;;-141.97;38.87;47703.59;5030710;28;20181;-83
2023/01/06 11:19:44;;;;;;;8.97;3.77;;;;;;;-141.97;38.74;47638.25;5036851;28;20709;-84
2023/01/06 11:22:34;;;;;;;7.20;3.37;;;;;;;-141.97;38.80;47730.50;5053227;28;20235;-84
2023/01/06 11:25:00;;;;;;;7.70;3.70;;;;;;;-141.97;38.91;47699.75;5037559;28;20947;-84
2023/01/06 11:27:25;;;;;;;11.50;4.60;;;;;;;-141.97;38.65;47713.22;5034223;28;20186;-83
2023/01/06 11:29:51;;;;;;;6.37;3.07;;;;;;;-141.97;38.50;47672.84;5042888;28;20270;-83